Bettles, AK

08:46 PM AKST die 23o February, anno 2018 (GMT -0900)
Bettles | | Change Station

Elev 643 ft 66.92 °N, 151.53 °W | Updated 53 minutes ago

Aequaliter Nubila
Aequaliter Nubila
4 °F
Feels Like -7 °F
N
6
Ventus Variabilis Ventus from Magis Auster quam Eurus

Hodie
High -- | Low -- °F
--% Chance of Precip.
Yesterday
High -- | Low -- °F
Precip. -- in
Pressio 29.97 in
Visibilitas 10.0 milia passuum
Clouds Aequaliter Nubila 1700 ft
Frigus Venti -7 °F
Frigus in quo Ros apparet -1 °F
Umor 80%
Rainfall 0.03 in
Snow Depth Not available.
8:44 AM 5:56 PM
First Quarter, 60% visible
METAR PABT 240453Z 15005KT 10SM OVC017 M16/M18 A2990 RMK AO2 SLP148 T11561183
Pressio 29.97 in
Visibilitas 10.0 milia passuum
Clouds Aequaliter Nubila 1700 ft
Frigus Venti -7 °F
Frigus in quo Ros apparet -1 °F
Umor 80%
Rainfall 0.03 in
Snow Depth Not available.
8:44 AM 5:56 PM
First Quarter, 60% visible
METAR PABT 240453Z 15005KT 10SM OVC017 M16/M18 A2990 RMK AO2 SLP148 T11561183

Get Severe Weather Alerts

Thanks for signing up!

Be on the lookout for a verification email in your inbox.

You'll start receiving the daily forecast at 6 AM.

×

10-Day Weather Forecast

Almanac

Astronomy

Feb. 23, 2018 Rise Set
Actual Time
Civil Twilight
Nautical Twilight
Astronomical Twilight
Moon
Length Of Visible Light
Length of Day
Tomorrow will be .
, % of the Moon is Illuminated

Today's Extremes

State Highs State Lows

Community

WunderPhotos

Category 6

Welcome to Category 6. This is the collective home for Weather Underground's featured writeups by Dr. Jeff Masters (right), Bob Henson (left), Chris Burt, and other regular contributors.

Nearby

Air Quality

  Air Quality AQ Index Pollutant
Not available.

Snow Depth

Station Depth Elevation

Earthquake Activity

City Distance Mag. Time & Date
Minimum magnitude displayed is 2.5.

Coastal Water Temperatures

Locus Calor

Stations

Nearby Weather Stations

Station Location Temp Frigus Venti Frigus in quo Ros apparet Umor Ventus Precip. Elev Renovata Type
                   

Watches & Warnings

There are currently no watches in effect.